Terminal Aerodrome Forecast
Issued by NWS

Home | Current Version | Previous Version | Graphics & Text | Print | Product List | Glossary On
Versions: 1 2 3 4 5 6 7 8 9 10 11 12 13 14
943
FTUS43 KFGF 232320
TAFBJI
TAF
KBJI 232320Z 2400/2424 14010KT P6SM BKN060
     FM240200 16006KT P6SM VCTS BKN040CB
     FM240400 18006KT P6SM BKN040
     FM240500 22006KT P6SM SCT035
     FM241000 28009KT P6SM SCT120=

USA.gov is the U.S. government's official web portal to all federal, state and local government web resources and services.